Time;durP1;ratioP1;P1;durP2;ratioP2;P2;SDS_P1;SDS_P2;PMS_P1;PMS_P2;Temp;Humidity;BMP_temperature;BMP_pressure;BME280_temperature;BME280_humidity;BME280_pressure;Samples;Min_cycle;Max_cycle;Signal;HPM_P1;HPM_P2
2021/07/28 00:00:35;;;;;;;9.35;5.22;;;20.30;99.90;;;;;;5036834;28;20507;-90
2021/07/28 00:03:00;;;;;;;5.90;4.90;;;20.20;99.90;;;;;;5036105;28;20147;-90
2021/07/28 00:05:26;;;;;;;9.82;5.00;;;20.30;99.90;;;;;;5036747;28;20044;-90
2021/07/28 00:07:53;;;;;;;6.40;4.72;;;20.50;99.90;;;;;;5036208;28;20025;-90
2021/07/28 00:10:19;;;;;;;8.13;4.80;;;20.40;99.90;;;;;;5036053;28;20427;-90
2021/07/28 00:12:45;;;;;;;6.45;4.85;;;20.30;99.90;;;;;;5052978;28;20029;-90
2021/07/28 00:15:12;;;;;;;6.30;4.90;;;20.30;99.90;;;;;;5036158;28;20033;-90
2021/07/28 00:17:44;;;;;;;9.43;5.07;;;20.40;99.90;;;;;;5035949;28;20029;-90
2021/07/28 00:23:15;;;;;;;6.68;5.15;;;20.30;99.90;;;;;;5025562;28;20154;-90
2021/07/28 00:25:45;;;;;;;8.02;5.80;;;20.30;99.90;;;;;;5047349;28;20021;-91
2021/07/28 00:28:14;;;;;;;8.70;5.10;;;20.40;99.90;;;;;;5041658;28;20079;-90
2021/07/28 00:30:43;;;;;;;11.27;5.60;;;20.30;99.90;;;;;;5037396;28;20095;-90
2021/07/28 00:33:09;;;;;;;6.50;5.40;;;20.20;99.90;;;;;;5053046;28;20499;-89
2021/07/28 00:35:35;;;;;;;9.35;5.30;;;20.00;99.90;;;;;;5053865;28;20017;-90
2021/07/28 00:38:02;;;;;;;6.97;5.32;;;20.00;99.90;;;;;;5033673;28;20021;-90
2021/07/28 00:40:30;;;;;;;8.80;5.47;;;19.90;99.90;;;;;;5017411;28;20354;-90
2021/07/28 00:43:14;;;;;;;10.77;6.00;;;19.80;99.90;;;;;;5017525;28;20025;-91
2021/07/28 00:45:40;;;;;;;9.55;5.60;;;19.70;99.90;;;;;;5016610;28;20079;-90
2021/07/28 00:48:08;;;;;;;6.50;5.60;;;19.70;99.90;;;;;;5015966;28;20033;-90
2021/07/28 00:50:35;;;;;;;8.15;5.75;;;19.70;99.90;;;;;;5033544;28;20026;-90
2021/07/28 00:53:02;;;;;;;8.93;5.95;;;19.80;99.90;;;;;;5015831;28;20029;-89
2021/07/28 00:55:30;;;;;;;8.82;5.50;;;19.70;99.90;;;;;;5015858;28;20033;-89
2021/07/28 00:57:56;;;;;;;6.65;5.47;;;19.80;99.90;;;;;;5015648;28;20537;-89
2021/07/28 01:00:21;;;;;;;6.05;5.47;;;19.70;99.90;;;;;;5016320;28;20021;-89
2021/07/28 01:02:47;;;;;;;10.00;6.40;;;19.70;99.90;;;;;;5015655;28;20021;-88
2021/07/28 01:05:13;;;;;;;8.30;5.63;;;19.70;99.90;;;;;;5016549;28;20033;-88
2021/07/28 01:07:38;;;;;;;7.43;5.45;;;19.60;99.90;;;;;;5018132;28;20044;-88
2021/07/28 01:10:05;;;;;;;12.57;6.13;;;19.60;99.90;;;;;;5019359;28;20060;-87
2021/07/28 01:12:33;;;;;;;6.25;4.88;;;19.70;99.90;;;;;;5019261;28;20111;-87
2021/07/28 01:14:59;;;;;;;5.18;4.68;;;19.60;99.90;;;;;;5019191;28;20025;-87
2021/07/28 01:17:25;;;;;;;6.90;5.07;;;19.80;99.90;;;;;;5019107;28;20437;-86
2021/07/28 01:20:00;;;;;;;8.15;5.40;;;19.60;99.90;;;;;;5019045;28;20040;-87
2021/07/28 01:22:26;;;;;;;10.18;4.63;;;19.50;99.90;;;;;;5037110;28;20116;-86
2021/07/28 01:24:52;;;;;;;6.47;5.03;;;19.50;99.90;;;;;;5019280;28;20143;-86
2021/07/28 01:27:18;;;;;;;8.82;4.85;;;19.50;99.90;;;;;;5036743;28;20027;-86
2021/07/28 01:29:44;;;;;;;8.90;5.18;;;19.40;99.90;;;;;;5036689;28;20389;-86
2021/07/28 01:32:10;;;;;;;6.90;4.70;;;19.40;99.90;;;;;;5018918;28;20022;-86
2021/07/28 01:34:36;;;;;;;5.70;4.28;;;19.30;99.90;;;;;;5018803;28;20025;-86
2021/07/28 01:37:03;;;;;;;7.82;4.60;;;19.30;99.90;;;;;;5018954;28;20546;-86
2021/07/28 01:39:29;;;;;;;6.78;4.13;;;19.20;99.90;;;;;;5032679;28;20053;-87
2021/07/28 01:42:01;;;;;;;6.47;4.50;;;19.10;99.90;;;;;;5038444;28;20373;-87
2021/07/28 01:44:27;;;;;;;6.70;4.63;;;19.10;99.90;;;;;;5038665;28;20133;-87
2021/07/28 01:46:53;;;;;;;7.28;4.40;;;19.20;99.90;;;;;;5056266;28;20048;-88
2021/07/28 01:49:19;;;;;;;4.97;4.30;;;19.30;99.90;;;;;;5038303;28;20546;-87
2021/07/28 01:51:44;;;;;;;6.07;4.20;;;19.40;99.90;;;;;;5038366;28;20032;-88
2021/07/28 01:54:10;;;;;;;7.90;4.50;;;19.30;99.90;;;;;;5038352;28;20029;-88
2021/07/28 01:56:42;;;;;;;6.70;4.13;;;19.30;99.90;;;;;;5038241;28;20064;-87
2021/07/28 01:59:12;;;;;;;8.40;4.05;;;19.30;99.90;;;;;;5039399;28;20516;-88
2021/07/28 02:01:38;;;;;;;6.60;4.15;;;19.10;99.90;;;;;;5038515;28;20032;-88
2021/07/28 02:04:04;;;;;;;6.28;3.90;;;19.00;99.90;;;;;;5038073;28;20400;-88
2021/07/28 02:06:31;;;;;;;5.10;4.13;;;18.90;99.90;;;;;;5038189;28;20056;-88
2021/07/28 02:08:57;;;;;;;4.68;4.13;;;18.90;99.90;;;;;;5038024;28;20074;-88
2021/07/28 02:11:23;;;;;;;6.82;4.10;;;19.00;99.90;;;;;;5038131;28;20419;-89
2021/07/28 02:13:48;;;;;;;5.97;4.10;;;18.90;99.90;;;;;;5038272;28;20047;-89
2021/07/28 02:16:14;;;;;;;6.03;4.00;;;18.80;99.90;;;;;;5056178;28;20025;-89
2021/07/28 02:18:40;;;;;;;11.57;4.70;;;18.80;99.90;;;;;;5038719;28;20053;-89
2021/07/28 02:21:08;;;;;;;9.10;4.28;;;18.80;99.90;;;;;;5056241;28;20466;-89
2021/07/28 02:23:34;;;;;;;6.75;4.30;;;18.80;99.90;;;;;;5055822;28;20387;-89
2021/07/28 02:26:00;;;;;;;8.75;4.70;;;19.00;99.90;;;;;;5056064;28;20013;-89
2021/07/28 02:28:25;;;;;;;7.97;4.88;;;19.10;99.90;;;;;;5038018;28;20526;-89
2021/07/28 02:30:51;;;;;;;4.93;4.05;;;19.20;99.90;;;;;;5038311;28;20414;-88
2021/07/28 02:33:17;;;;;;;6.35;4.07;;;19.20;99.90;;;;;;5062344;28;20072;-87
2021/07/28 02:35:43;;;;;;;9.95;4.72;;;19.40;99.90;;;;;;5051433;28;20021;-88
2021/07/28 02:38:08;;;;;;;13.85;4.55;;;19.40;99.90;;;;;;5041865;28;20041;-89
2021/07/28 02:40:34;;;;;;;14.70;4.90;;;19.20;99.90;;;;;;5036697;28;20082;-89
2021/07/28 02:43:00;;;;;;;7.43;4.53;;;19.10;99.90;;;;;;5036668;28;20380;-89
2021/07/28 02:45:26;;;;;;;6.22;4.10;;;19.10;99.90;;;;;;5018746;28;20033;-89
2021/07/28 02:47:51;;;;;;;14.50;4.57;;;19.00;99.90;;;;;;5017873;28;20424;-90
2021/07/28 02:50:17;;;;;;;7.18;4.40;;;19.00;99.90;;;;;;5017911;28;20021;-89
2021/07/28 02:52:43;;;;;;;7.18;4.65;;;18.80;99.90;;;;;;5017667;28;20389;-89
2021/07/28 02:55:09;;;;;;;9.82;4.60;;;18.80;99.90;;;;;;5017937;28;20053;-89
2021/07/28 02:57:36;;;;;;;9.77;4.63;;;18.80;99.90;;;;;;5035186;28;20037;-89
2021/07/28 03:00:07;;;;;;;5.93;4.70;;;18.90;99.90;;;;;;5017607;28;20108;-89
2021/07/28 03:02:33;;;;;;;6.30;4.35;;;18.60;99.90;;;;;;5017416;28;20457;-90
2021/07/28 03:04:59;;;;;;;11.32;4.63;;;18.60;99.90;;;;;;5017719;28;20116;-90
2021/07/28 03:07:24;;;;;;;6.03;4.47;;;18.70;99.90;;;;;;5017380;28;20389;-90
2021/07/28 03:09:50;;;;;;;8.38;4.70;;;18.80;99.90;;;;;;5017377;28;20392;-89
2021/07/28 03:12:16;;;;;;;9.90;4.63;;;18.60;99.90;;;;;;5017293;28;20103;-89
2021/07/28 03:14:41;;;;;;;5.75;4.35;;;18.60;99.90;;;;;;5017397;28;20489;-90
2021/07/28 03:17:07;;;;;;;9.48;4.65;;;18.50;99.90;;;;;;5017246;28;20053;-90
2021/07/28 03:19:33;;;;;;;6.63;4.40;;;18.60;99.90;;;;;;5017296;28;20087;-89
2021/07/28 03:21:58;;;;;;;6.57;4.30;;;18.50;99.90;;;;;;5034862;28;20029;-90
2021/07/28 03:24:24;;;;;;;11.27;4.53;;;18.60;99.90;;;;;;5017086;28;20026;-90
2021/07/28 03:26:50;;;;;;;8.18;5.00;;;18.50;99.90;;;;;;5017595;28;20029;-89
2021/07/28 03:29:16;;;;;;;6.18;4.40;;;18.60;99.90;;;;;;5016989;28;20026;-89
2021/07/28 03:31:42;;;;;;;6.53;4.40;;;18.80;99.90;;;;;;5016792;28;20091;-90
2021/07/28 03:34:07;;;;;;;6.18;4.28;;;18.80;99.90;;;;;;5001005;28;20171;-90
2021/07/28 03:36:33;;;;;;;8.85;4.68;;;18.70;99.90;;;;;;5017081;28;20454;-90
2021/07/28 03:38:59;;;;;;;9.38;4.45;;;18.60;99.90;;;;;;5026596;28;20049;-90
2021/07/28 03:41:24;;;;;;;7.38;4.95;;;18.60;99.90;;;;;;5036871;28;20032;-90
2021/07/28 03:43:50;;;;;;;8.80;4.93;;;18.60;99.90;;;;;;5036663;28;20024;-90
2021/07/28 03:46:16;;;;;;;8.82;4.85;;;18.50;99.90;;;;;;5036379;28;20461;-89
2021/07/28 03:48:41;;;;;;;9.60;4.78;;;18.50;99.90;;;;;;5036483;28;20025;-89
2021/07/28 03:51:07;;;;;;;11.48;4.82;;;18.50;99.90;;;;;;5036349;28;20056;-89
2021/07/28 03:53:35;;;;;;;5.22;4.45;;;18.40;99.90;;;;;;5036225;28;20021;-89
2021/07/28 03:56:00;;;;;;;8.80;4.43;;;18.40;99.90;;;;;;5036291;28;20029;-89
2021/07/28 03:58:26;;;;;;;14.50;5.13;;;18.60;99.90;;;;;;5036266;28;20500;-90
2021/07/28 04:00:52;;;;;;;10.48;4.68;;;18.70;99.90;;;;;;5036222;28;20159;-91
2021/07/28 04:03:18;;;;;;;11.63;4.57;;;18.50;99.90;;;;;;5036090;28;20033;-90
2021/07/28 04:05:45;;;;;;;8.35;4.03;;;18.60;99.90;;;;;;5054034;28;20017;-90
2021/07/28 04:08:11;;;;;;;9.10;3.97;;;18.50;99.90;;;;;;5036114;28;20024;-90
2021/07/28 04:10:37;;;;;;;6.32;3.60;;;18.40;99.90;;;;;;5036207;28;20074;-90
2021/07/28 04:13:04;;;;;;;7.45;4.60;;;18.40;99.90;;;;;;5037573;28;20021;-90
2021/07/28 04:15:30;;;;;;;6.40;4.50;;;18.50;99.90;;;;;;5038379;28;20039;-91
2021/07/28 04:17:55;;;;;;;6.95;4.60;;;18.50;99.90;;;;;;5038788;28;20028;-90
2021/07/28 04:20:21;;;;;;;4.93;4.05;;;18.50;99.90;;;;;;5038900;28;20108;-91
2021/07/28 04:22:47;;;;;;;6.22;4.40;;;18.40;99.90;;;;;;5038844;28;20480;-90
2021/07/28 04:25:13;;;;;;;5.57;4.47;;;18.60;99.90;;;;;;5038625;28;20065;-90
2021/07/28 04:27:38;;;;;;;11.73;4.30;;;18.60;99.90;;;;;;5038217;28;20051;-91
2021/07/28 04:30:05;;;;;;;6.00;4.60;;;18.70;99.90;;;;;;5038840;28;20021;-92
2021/07/28 04:32:31;;;;;;;4.65;4.15;;;18.50;99.90;;;;;;5038739;28;20075;-91
2021/07/28 04:34:57;;;;;;;12.13;3.92;;;18.50;99.90;;;;;;5038752;28;20029;-91
2021/07/28 04:37:23;;;;;;;8.18;4.30;;;18.40;99.90;;;;;;5039742;28;20025;-91
2021/07/28 04:39:48;;;;;;;6.63;4.43;;;18.40;99.90;;;;;;5039216;28;20095;-91
2021/07/28 04:42:14;;;;;;;8.95;4.38;;;18.40;99.90;;;;;;5037916;28;20025;-91
2021/07/28 04:44:40;;;;;;;10.32;5.25;;;18.40;99.90;;;;;;5050003;28;20067;-90
2021/07/28 04:47:05;;;;;;;7.45;4.97;;;18.50;99.90;;;;;;5056543;28;20041;-91
2021/07/28 04:49:31;;;;;;;10.00;5.18;;;18.50;99.90;;;;;;5046595;28;20074;-90
2021/07/28 04:51:57;;;;;;;6.10;4.82;;;18.40;99.90;;;;;;5040573;28;20029;-91
2021/07/28 04:54:23;;;;;;;12.93;5.20;;;18.30;99.90;;;;;;5057535;28;20028;-91
2021/07/28 04:56:48;;;;;;;10.55;4.82;;;18.30;99.90;;;;;;5039539;28;20021;-91
2021/07/28 04:59:14;;;;;;;7.32;5.25;;;18.40;99.90;;;;;;5056324;28;20588;-92
2021/07/28 05:01:40;;;;;;;7.22;4.85;;;18.40;99.90;;;;;;5057007;28;20048;-91
2021/07/28 05:04:06;;;;;;;14.32;4.93;;;18.30;99.90;;;;;;5038617;28;20033;-92
2021/07/28 05:06:33;;;;;;;6.00;5.03;;;18.50;99.90;;;;;;5038547;28;20018;-91
2021/07/28 05:09:01;;;;;;;8.18;4.47;;;18.30;99.90;;;;;;5039263;28;20024;-91
2021/07/28 05:11:27;;;;;;;10.38;4.55;;;18.40;99.90;;;;;;5039785;28;20029;-91
2021/07/28 05:13:53;;;;;;;8.15;4.30;;;18.70;99.90;;;;;;5039150;28;20029;-90
2021/07/28 05:16:18;;;;;;;8.68;4.60;;;18.60;99.90;;;;;;5038103;28;20029;-90
2021/07/28 05:18:44;;;;;;;7.88;4.55;;;18.50;99.90;;;;;;5038022;28;20032;-91
2021/07/28 05:21:10;;;;;;;5.75;4.07;;;18.80;99.90;;;;;;5039212;28;20025;-91
2021/07/28 05:23:35;;;;;;;9.52;4.47;;;18.90;99.90;;;;;;5038914;28;20025;-91
2021/07/28 05:26:01;;;;;;;6.82;4.55;;;18.90;99.90;;;;;;5039845;28;20021;-91
2021/07/28 05:28:27;;;;;;;6.22;4.47;;;18.90;99.90;;;;;;5039009;28;20494;-91
2021/07/28 05:30:52;;;;;;;7.35;3.95;;;18.80;99.90;;;;;;5038886;28;20057;-91
2021/07/28 05:33:18;;;;;;;8.45;4.22;;;18.70;99.90;;;;;;5038363;28;20025;-91
2021/07/28 05:35:50;;;;;;;7.00;4.32;;;18.70;99.90;;;;;;5037817;28;20057;-91
2021/07/28 05:38:16;;;;;;;8.98;4.03;;;18.50;99.90;;;;;;5039301;28;20041;-91
2021/07/28 05:40:41;;;;;;;7.53;3.95;;;18.50;99.90;;;;;;5039727;28;20365;-92
2021/07/28 05:43:07;;;;;;;8.77;4.10;;;18.50;99.90;;;;;;5056443;28;20032;-91
2021/07/28 05:45:33;;;;;;;8.35;3.97;;;18.40;99.90;;;;;;5039194;28;20029;-91
2021/07/28 05:47:59;;;;;;;7.63;4.13;;;18.30;99.90;;;;;;5039008;28;20039;-91
2021/07/28 05:50:25;;;;;;;6.88;3.95;;;18.40;99.90;;;;;;5038823;28;20025;-91
2021/07/28 05:52:51;;;;;;;6.88;4.35;;;18.40;99.90;;;;;;5038580;28;20025;-91
2021/07/28 05:55:16;;;;;;;8.30;4.22;;;18.50;99.90;;;;;;5042621;28;20025;-92
2021/07/28 05:57:42;;;;;;;8.90;4.03;;;18.50;99.90;;;;;;5043029;28;20029;-92
2021/07/28 06:00:09;;;;;;;7.60;4.20;;;18.50;99.90;;;;;;5042440;28;20029;-88
2021/07/28 06:02:34;;;;;;;8.23;4.20;;;18.70;99.90;;;;;;5041870;28;20040;-91
2021/07/28 06:05:01;;;;;;;10.30;4.57;;;18.70;99.90;;;;;;5059701;28;20033;-91
2021/07/28 06:07:28;;;;;;;11.93;4.00;;;18.70;99.90;;;;;;5059206;28;20480;-91
2021/07/28 06:09:54;;;;;;;7.88;4.50;;;18.60;99.90;;;;;;5042575;28;20025;-91
2021/07/28 06:12:20;;;;;;;11.52;4.13;;;18.60;99.90;;;;;;5042226;28;20055;-91
2021/07/28 06:14:46;;;;;;;6.22;4.07;;;18.90;99.90;;;;;;5025482;28;20078;-91
2021/07/28 06:17:13;;;;;;;9.88;4.32;;;18.70;99.90;;;;;;5042144;28;20029;-91
2021/07/28 06:19:39;;;;;;;7.78;4.30;;;18.70;99.90;;;;;;5042489;28;20036;-91
2021/07/28 06:22:05;;;;;;;11.32;4.70;;;18.70;99.90;;;;;;5042826;28;20378;-91
2021/07/28 06:24:32;;;;;;;8.05;4.60;;;18.70;99.90;;;;;;5041086;28;20021;-91
2021/07/28 06:26:57;;;;;;;8.27;4.00;;;18.60;99.90;;;;;;5042547;28;20025;-91
2021/07/28 06:29:25;;;;;;;8.75;4.22;;;18.50;99.90;;;;;;5042653;28;20066;-91
2021/07/28 06:31:54;;;;;;;9.90;4.25;;;18.50;99.90;;;;;;5041481;28;20044;-92
2021/07/28 06:34:20;;;;;;;4.68;3.90;;;18.50;99.90;;;;;;5041816;28;20361;-92
2021/07/28 06:36:46;;;;;;;6.43;3.88;;;18.50;99.90;;;;;;5042064;28;20009;-92
2021/07/28 06:39:12;;;;;;;12.90;4.45;;;18.40;99.90;;;;;;5041346;28;20064;-91
2021/07/28 06:41:38;;;;;;;10.13;3.97;;;18.50;99.90;;;;;;5040389;28;20037;-92
2021/07/28 06:44:04;;;;;;;6.15;4.18;;;18.60;99.90;;;;;;5042071;28;20025;-92
2021/07/28 06:46:30;;;;;;;9.15;4.22;;;18.90;99.90;;;;;;5041517;28;20025;-92
2021/07/28 06:48:55;;;;;;;5.72;4.35;;;19.00;99.90;;;;;;5042241;28;20036;-92
2021/07/28 06:51:21;;;;;;;9.07;4.30;;;19.00;99.90;;;;;;5042587;28;20025;-92
2021/07/28 06:53:47;;;;;;;7.15;4.18;;;19.00;99.90;;;;;;5048981;28;20025;-92
2021/07/28 06:56:14;;;;;;;9.27;4.47;;;18.80;99.90;;;;;;5056266;28;20092;-92
2021/07/28 06:58:41;;;;;;;5.45;4.22;;;18.80;99.90;;;;;;5048800;28;20029;-91
2021/07/28 07:01:07;;;;;;;7.03;4.10;;;19.10;99.90;;;;;;5043133;28;20028;-92
2021/07/28 07:03:34;;;;;;;6.68;4.25;;;19.10;99.90;;;;;;5041294;28;20025;-92
2021/07/28 07:06:00;;;;;;;10.95;4.72;;;19.10;99.90;;;;;;5040438;28;20383;-92
2021/07/28 07:08:26;;;;;;;7.80;4.53;;;19.00;99.90;;;;;;5040530;28;20108;-92
2021/07/28 07:10:55;;;;;;;7.43;4.00;;;18.90;99.90;;;;;;5040373;28;20029;-92
2021/07/28 07:13:22;;;;;;;6.57;4.47;;;19.10;99.90;;;;;;5040101;28;20054;-92
2021/07/28 07:15:49;;;;;;;7.68;4.57;;;19.20;99.90;;;;;;5039180;28;20032;-91
2021/07/28 07:18:15;;;;;;;7.05;4.13;;;19.20;99.90;;;;;;5041059;28;20028;-91
2021/07/28 07:20:41;;;;;;;5.38;3.92;;;19.30;99.90;;;;;;5057756;28;20037;-91
2021/07/28 07:23:07;;;;;;;9.52;4.68;;;19.30;99.90;;;;;;5058727;28;20366;-91
2021/07/28 07:25:32;;;;;;;7.80;4.70;;;19.20;99.90;;;;;;5040566;28;20480;-91
2021/07/28 07:27:58;;;;;;;10.23;4.97;;;19.30;99.90;;;;;;5040788;28;20017;-91
2021/07/28 07:30:24;;;;;;;8.98;4.80;;;19.30;99.90;;;;;;5040660;28;20024;-92
2021/07/28 07:35:36;;;;;;;7.68;4.80;;;19.10;99.90;;;;;;5026586;28;20029;-91
2021/07/28 07:38:01;;;;;;;10.13;4.57;;;19.10;99.90;;;;;;5038037;28;20083;-91
2021/07/28 07:40:28;;;;;;;6.38;4.70;;;18.80;99.90;;;;;;5021049;28;20052;-91
2021/07/28 07:42:53;;;;;;;7.18;4.95;;;18.80;99.90;;;;;;5038653;28;20051;-91
2021/07/28 07:45:19;;;;;;;8.07;5.00;;;18.70;99.90;;;;;;5020759;28;20059;-91
2021/07/28 07:47:45;;;;;;;9.45;5.20;;;18.70;99.90;;;;;;5020718;28;20473;-91
2021/07/28 07:50:11;;;;;;;8.18;5.38;;;18.90;99.90;;;;;;5021387;28;20053;-90
2021/07/28 07:52:37;;;;;;;7.60;5.28;;;18.60;99.90;;;;;;5019363;28;20101;-91
2021/07/28 07:55:03;;;;;;;11.80;5.10;;;18.70;99.90;;;;;;5020318;28;20029;-90
2021/07/28 07:57:29;;;;;;;12.07;5.35;;;18.80;99.90;;;;;;5021167;28;20476;-91
2021/07/28 07:59:55;;;;;;;8.98;5.30;;;18.70;99.90;;;;;;5020420;28;20117;-91
2021/07/28 08:02:21;;;;;;;11.10;4.90;;;18.70;99.90;;;;;;5020063;28;20159;-89
2021/07/28 08:04:46;;;;;;;8.63;5.00;;;18.90;99.90;;;;;;5019840;28;20029;-89
2021/07/28 08:07:12;;;;;;;10.48;5.28;;;18.60;99.90;;;;;;5019504;28;20385;-89
2021/07/28 08:09:37;;;;;;;10.90;4.88;;;18.80;99.90;;;;;;5018750;28;20026;-90
2021/07/28 08:12:03;;;;;;;10.32;5.38;;;19.00;99.90;;;;;;5019796;28;20021;-89
2021/07/28 08:14:29;;;;;;;8.75;5.45;;;19.10;99.90;;;;;;5019416;28;20029;-90
2021/07/28 08:16:55;;;;;;;9.02;5.05;;;19.00;99.90;;;;;;5036829;28;20026;-89
2021/07/28 08:19:20;;;;;;;6.80;5.15;;;18.80;99.90;;;;;;5020114;28;20388;-90
2021/07/28 08:21:47;;;;;;;10.50;5.32;;;19.00;99.90;;;;;;5019860;28;20112;-90
2021/07/28 08:24:16;;;;;;;10.02;5.43;;;19.20;99.90;;;;;;5018529;28;20029;-90
2021/07/28 08:26:41;;;;;;;10.52;5.50;;;19.30;99.90;;;;;;5019428;28;20456;-90
2021/07/28 08:29:07;;;;;;;7.45;5.10;;;19.20;99.90;;;;;;5019498;28;20037;-89
2021/07/28 08:31:33;;;;;;;9.05;5.43;;;19.40;99.90;;;;;;5037156;28;20389;-89
2021/07/28 08:33:58;;;;;;;6.43;5.10;;;19.40;99.90;;;;;;5019232;28;20025;-90
2021/07/28 08:36:25;;;;;;;11.20;5.50;;;19.30;99.90;;;;;;5019018;28;20036;-87
2021/07/28 08:38:50;;;;;;;8.23;5.65;;;19.20;99.90;;;;;;5036646;28;20049;-88
2021/07/28 08:41:19;;;;;;;7.43;5.50;;;18.90;99.90;;;;;;5018909;28;20037;-90
2021/07/28 08:43:45;;;;;;;7.78;4.72;;;19.10;99.90;;;;;;5018349;28;20428;-88
2021/07/28 08:46:11;;;;;;;6.63;4.95;;;19.20;99.90;;;;;;5020003;28;20053;-89
2021/07/28 08:48:38;;;;;;;11.35;5.18;;;19.30;99.90;;;;;;5036754;28;20464;-89
2021/07/28 08:51:05;;;;;;;12.68;5.55;;;19.30;99.90;;;;;;5019399;28;20397;-89
2021/07/28 08:53:31;;;;;;;7.88;5.05;;;19.60;99.90;;;;;;5037051;28;20024;-90
2021/07/28 08:56:02;;;;;;;14.10;4.47;;;19.80;99.90;;;;;;5019588;28;20026;-90
2021/07/28 08:58:29;;;;;;;9.90;5.38;;;19.90;99.90;;;;;;5036708;28;20036;-90
2021/07/28 09:00:55;;;;;;;8.35;5.22;;;19.70;99.90;;;;;;5019064;28;20029;-90
2021/07/28 09:03:21;;;;;;;5.35;4.80;;;19.70;99.90;;;;;;5018210;28;20480;-90
2021/07/28 09:05:49;;;;;;;6.43;4.50;;;19.70;99.90;;;;;;5027092;28;20021;-90
2021/07/28 09:08:32;;;;;;;8.35;5.07;;;19.80;99.90;;;;;;5028320;28;20060;-90
2021/07/28 09:11:00;;;;;;;8.02;4.63;;;20.30;99.90;;;;;;5040142;28;20025;-90
2021/07/28 09:13:33;;;;;;;9.55;4.80;;;20.30;99.90;;;;;;5021586;28;20596;-90
2021/07/28 09:16:02;;;;;;;8.10;4.50;;;20.30;99.90;;;;;;5020290;28;20020;-91
2021/07/28 09:18:29;;;;;;;11.07;5.53;;;20.20;99.90;;;;;;5019958;28;20065;-92
2021/07/28 09:20:55;;;;;;;4.85;4.35;;;20.30;99.90;;;;;;5020456;28;20025;-90
2021/07/28 09:23:21;;;;;;;6.97;4.45;;;20.40;99.90;;;;;;5019664;28;20079;-90
2021/07/28 09:25:54;;;;;;;6.65;4.47;;;20.60;99.90;;;;;;5036548;28;20026;-90
2021/07/28 09:28:24;;;;;;;7.85;4.82;;;20.80;99.90;;;;;;5019786;28;20022;-91
2021/07/28 09:30:49;;;;;;;4.95;4.13;;;20.70;99.90;;;;;;5023361;28;20106;-89
2021/07/28 09:33:17;;;;;;;6.10;4.60;;;20.60;99.90;;;;;;5023234;28;20018;-89
2021/07/28 09:35:52;;;;;;;9.38;4.68;;;20.40;99.90;;;;;;5021999;28;20104;-92
2021/07/28 09:38:34;;;;;;;8.85;4.47;;;20.30;99.90;;;;;;5026038;28;20409;-89
2021/07/28 09:41:26;;;;;;;7.25;4.72;;;20.50;99.90;;;;;;5041427;28;20029;-88
2021/07/28 09:44:00;;;;;;;7.43;4.95;;;20.70;99.90;;;;;;5041249;28;20021;-88
2021/07/28 09:46:29;;;;;;;7.35;4.68;;;20.70;99.90;;;;;;5058093;28;20025;-88
2021/07/28 09:48:56;;;;;;;7.78;4.60;;;20.60;99.90;;;;;;5041634;28;20032;-88
2021/07/28 09:51:33;;;;;;;6.85;4.38;;;20.60;99.90;;;;;;5041700;28;20021;-88
2021/07/28 09:54:01;;;;;;;8.60;4.35;;;20.60;99.90;;;;;;5041104;28;20074;-88
2021/07/28 09:56:29;;;;;;;9.65;4.93;;;20.90;99.90;;;;;;5040688;28;20029;-88
2021/07/28 09:58:59;;;;;;;10.45;4.38;;;20.70;99.90;;;;;;5041082;28;20032;-89
2021/07/28 10:01:28;;;;;;;8.13;4.32;;;20.60;99.90;;;;;;5041003;28;20086;-88
2021/07/28 10:03:58;;;;;;;8.23;4.63;;;20.70;99.90;;;;;;5041299;28;20563;-88
2021/07/28 10:06:30;;;;;;;9.98;4.85;;;20.60;99.90;;;;;;5039847;28;20047;-88
2021/07/28 10:08:56;;;;;;;10.25;5.05;;;20.60;99.90;;;;;;5041382;28;20028;-88
2021/07/28 10:11:25;;;;;;;7.68;4.85;;;20.50;99.90;;;;;;5041259;28;20021;-89
2021/07/28 10:13:52;;;;;;;6.75;4.35;;;20.70;99.90;;;;;;5040679;28;20032;-89
2021/07/28 10:16:18;;;;;;;8.40;4.80;;;20.50;99.90;;;;;;5039352;28;20522;-90
2021/07/28 10:18:50;;;;;;;8.93;4.47;;;20.50;99.90;;;;;;5038221;28;20506;-90
2021/07/28 10:21:16;;;;;;;6.72;4.00;;;20.50;99.90;;;;;;5038182;28;20040;-90
2021/07/28 10:23:45;;;;;;;7.43;5.05;;;20.50;99.90;;;;;;5038183;28;20033;-89
2021/07/28 10:26:12;;;;;;;8.48;4.80;;;20.30;99.90;;;;;;5038163;28;20494;-90
2021/07/28 10:28:46;;;;;;;6.50;4.22;;;20.50;99.90;;;;;;5038230;28;20528;-90
2021/07/28 10:31:16;;;;;;;6.20;4.45;;;20.40;99.90;;;;;;5056001;28;20018;-90
2021/07/28 10:33:52;;;;;;;6.22;4.15;;;20.10;99.90;;;;;;5037926;28;20108;-90
2021/07/28 10:36:19;;;;;;;7.78;4.55;;;20.20;99.90;;;;;;5037915;28;20400;-90
2021/07/28 10:38:58;;;;;;;8.02;5.00;;;20.30;99.90;;;;;;5037418;28;20444;-89
2021/07/28 10:41:55;;;;;;;6.95;4.50;;;20.50;99.90;;;;;;5037643;28;20025;-87
2021/07/28 10:44:22;;;;;;;6.90;4.50;;;20.80;99.90;;;;;;5005513;28;20500;-88
2021/07/28 10:46:54;;;;;;;7.35;4.30;;;21.00;99.90;;;;;;5055253;28;20108;-90
2021/07/28 10:49:35;;;;;;;8.07;4.30;;;21.60;99.90;;;;;;5037645;28;20025;-87
2021/07/28 10:52:01;;;;;;;7.40;4.60;;;21.20;99.90;;;;;;5037305;28;20021;-89
2021/07/28 10:54:46;;;;;;;9.98;4.50;;;21.40;99.90;;;;;;5037312;28;20039;-88
2021/07/28 10:57:31;;;;;;;;;;;22.30;99.90;;;;;;5055698;28;20047;-89
2021/07/28 10:59:57;;;;;;;;;;;23.00;99.90;;;;;;5036335;28;19908;-90
2021/07/28 11:02:23;;;;;;;5.78;4.03;;;23.00;99.90;;;;;;5037381;28;19999;-89
2021/07/28 11:05:18;;;;;;;8.20;4.15;;;22.60;99.90;;;;;;5054993;28;20021;-89
2021/07/28 11:08:05;;;;;;;7.32;3.75;;;23.20;99.90;;;;;;5037067;28;20052;-89
2021/07/28 11:10:49;;;;;;;8.13;3.80;;;23.60;99.90;;;;;;5037269;28;20469;-88
2021/07/28 11:13:23;;;;;;;6.05;3.72;;;24.50;99.90;;;;;;5037368;28;20036;-86
2021/07/28 11:16:08;;;;;;;7.47;4.13;;;24.20;99.90;;;;;;5041258;28;20072;-88
2021/07/28 11:18:37;;;;;;;;;;;23.80;99.90;;;;;;5047040;28;20389;-90
2021/07/28 11:21:11;;;;;;;6.07;3.72;;;23.90;99.90;;;;;;5040267;28;19991;-88
2021/07/28 11:23:36;;;;;;;;;;;24.70;99.90;;;;;;5037907;28;20032;-90
2021/07/28 11:26:11;;;;;;;9.90;3.63;;;25.00;99.90;;;;;;5036985;28;20353;-88
2021/07/28 11:28:37;;;;;;;8.05;3.80;;;25.30;99.90;;;;;;5036985;28;20036;-89
2021/07/28 11:31:05;;;;;;;4.97;3.78;;;25.70;99.90;;;;;;5054689;28;20388;-89
2021/07/28 11:33:32;;;;;;;7.63;3.85;;;25.50;99.90;;;;;;5036662;28;20036;-89
2021/07/28 11:35:59;;;;;;;5.82;3.42;;;25.50;99.90;;;;;;5036726;28;20032;-89
2021/07/28 11:38:27;;;;;;;5.93;3.63;;;25.00;99.90;;;;;;5036317;28;20056;-88
2021/07/28 11:40:55;;;;;;;6.57;3.45;;;23.90;99.90;;;;;;5036511;28;20035;-89
2021/07/28 11:43:23;;;;;;;5.22;3.08;;;23.40;99.90;;;;;;5036430;28;20112;-90
2021/07/28 11:45:49;;;;;;;4.15;3.10;;;23.50;99.90;;;;;;5036272;28;20033;-88
2021/07/28 11:48:33;;;;;;;7.72;3.78;;;24.20;99.90;;;;;;5036532;28;20052;-88
2021/07/28 11:51:06;;;;;;;6.38;3.58;;;24.10;99.90;;;;;;5035568;28;20029;-89
2021/07/28 11:53:33;;;;;;;8.38;3.67;;;23.10;99.90;;;;;;5054083;28;20028;-89
2021/07/28 11:56:11;;;;;;;7.80;3.80;;;23.20;99.90;;;;;;5036126;28;20021;-88
2021/07/28 11:58:44;;;;;;;6.63;3.40;;;24.10;99.90;;;;;;5054017;28;20032;-90
2021/07/28 12:01:26;;;;;;;5.40;3.72;;;24.50;99.90;;;;;;5036090;28;20020;-89
2021/07/28 12:03:52;;;;;;;4.80;3.22;;;24.20;99.90;;;;;;5036328;28;20034;-90
2021/07/28 12:06:31;;;;;;;4.00;3.20;;;25.10;99.90;;;;;;5036718;28;20027;-90
2021/07/28 12:09:09;;;;;;;5.63;3.20;;;26.20;99.90;;;;;;5036454;28;20393;-90
2021/07/28 12:11:53;;;;;;;6.03;3.30;;;26.00;99.90;;;;;;5054104;28;20024;-89
2021/07/28 12:14:46;;;;;;;4.15;3.00;;;26.70;99.90;;;;;;5036259;28;20040;-89
2021/07/28 12:17:17;;;;;;;4.38;3.45;;;26.00;99.90;;;;;;5032708;28;20033;-89
2021/07/28 12:19:55;;;;;;;4.53;3.10;;;25.50;99.90;;;;;;5036256;28;20594;-90
2021/07/28 12:22:33;;;;;;;4.10;3.40;;;25.70;99.90;;;;;;5036167;28;20455;-89
2021/07/28 12:25:22;;;;;;;4.50;3.00;;;25.80;99.90;;;;;;5035902;28;20025;-88
2021/07/28 12:27:57;;;;;;;7.05;3.72;;;25.00;99.90;;;;;;5035958;28;20058;-89
2021/07/28 12:30:32;;;;;;;3.80;3.00;;;24.90;99.90;;;;;;5035840;28;20027;-89
2021/07/28 12:33:07;;;;;;;6.30;3.28;;;24.80;99.90;;;;;;5035845;28;20025;-87
2021/07/28 12:35:33;;;;;;;5.57;3.33;;;24.50;99.90;;;;;;5035676;28;20112;-89
2021/07/28 12:38:10;;;;;;;7.00;3.10;;;26.00;99.90;;;;;;5033832;28;20064;-89
2021/07/28 12:40:37;;;;;;;5.90;3.35;;;26.50;99.90;;;;;;5015765;28;20037;-87
2021/07/28 12:43:05;;;;;;;5.72;3.53;;;27.40;99.90;;;;;;5015788;28;20026;-91
2021/07/28 12:45:31;;;;;;;3.42;3.00;;;27.40;99.90;;;;;;5033473;28;20075;-88
2021/07/28 12:47:56;;;;;;;5.47;2.80;;;27.40;99.90;;;;;;5016331;28;20022;-89
2021/07/28 12:50:22;;;;;;;5.30;2.72;;;27.40;99.90;;;;;;5016567;28;20466;-87
2021/07/28 12:52:48;;;;;;;5.47;3.00;;;27.30;99.90;;;;;;5015678;28;20026;-87
2021/07/28 12:55:15;;;;;;;5.10;2.88;;;27.30;99.90;;;;;;5015696;28;20036;-88